createdAt,value
2023-05-14T05:37:39.653Z,99.90
2023-05-14T05:40:17.900Z,99.90
2023-05-14T05:42:46.662Z,99.90
2023-05-14T05:45:15.501Z,99.90
2023-05-14T05:47:44.413Z,99.90
2023-05-14T05:50:13.660Z,99.90
2023-05-14T05:52:42.388Z,99.90
2023-05-14T05:55:12.496Z,99.90
2023-05-14T05:57:41.429Z,99.90
2023-05-14T06:00:14.360Z,99.90
2023-05-14T06:02:43.567Z,99.90
2023-05-14T06:05:12.884Z,99.90
2023-05-14T06:07:41.990Z,99.90
2023-05-14T06:10:13.103Z,99.90
2023-05-14T06:12:42.118Z,99.90
2023-05-14T06:15:12.568Z,99.90
2023-05-14T06:17:41.938Z,99.90
2023-05-14T06:20:14.280Z,99.90
2023-05-14T06:22:43.361Z,99.90
2023-05-14T06:25:14.277Z,99.90
2023-05-14T06:27:46.387Z,99.50
2023-05-14T06:30:18.970Z,96.00
2023-05-14T06:32:47.907Z,95.80
2023-05-14T06:35:16.517Z,99.60
2023-05-14T06:37:44.918Z,99.90
2023-05-14T06:40:17.095Z,99.90
2023-05-14T06:42:45.981Z,99.90
2023-05-14T06:45:14.624Z,99.90
2023-05-14T06:47:43.245Z,99.90
2023-05-14T06:50:13.961Z,99.90
2023-05-14T06:52:43.837Z,99.90
2023-05-14T06:55:12.435Z,99.90
2023-05-14T06:57:42.348Z,99.90
2023-05-14T07:00:12.754Z,99.90
2023-05-14T07:02:41.811Z,99.90
2023-05-14T07:05:12.377Z,99.90
2023-05-14T07:07:41.726Z,99.90
2023-05-14T07:10:10.538Z,99.90
2023-05-14T07:12:39.564Z,99.90
2023-05-14T07:15:12.345Z,99.90
2023-05-14T07:17:41.280Z,99.90
2023-05-14T07:20:11.909Z,99.90
2023-05-14T07:22:40.349Z,99.90
2023-05-14T07:25:09.961Z,99.90
2023-05-14T07:27:39.004Z,99.90
2023-05-14T07:30:10.984Z,99.90
2023-05-14T07:32:39.666Z,99.90
2023-05-14T07:35:09.888Z,99.90
2023-05-14T07:37:39.229Z,99.90
2023-05-14T07:40:14.072Z,99.90
2023-05-14T07:42:42.899Z,99.90
2023-05-14T07:45:14.650Z,99.70
2023-05-14T07:47:44.218Z,99.90
2023-05-14T07:50:14.012Z,99.90
2023-05-14T07:52:43.906Z,99.90
2023-05-14T07:55:14.652Z,99.90
2023-05-14T07:57:43.400Z,99.90
2023-05-14T08:00:17.196Z,99.90
2023-05-14T08:02:46.353Z,99.90
2023-05-14T08:05:15.770Z,99.90
2023-05-14T08:07:45.077Z,99.90
2023-05-14T08:10:14.079Z,96.50
2023-05-14T08:12:42.937Z,98.70
2023-05-14T08:15:14.332Z,99.90
2023-05-14T08:17:43.330Z,95.00
2023-05-14T08:20:13.712Z,94.50
2023-05-14T08:22:42.442Z,97.00
2023-05-14T08:25:13.187Z,96.30
2023-05-14T08:27:42.212Z,94.90
2023-05-14T08:30:14.115Z,95.40
2023-05-14T08:32:46.421Z,94.70
2023-05-14T08:35:15.388Z,93.40
2023-05-14T08:37:44.585Z,92.40
2023-05-14T08:40:14.339Z,97.00
2023-05-14T08:42:47.498Z,95.70
2023-05-14T08:45:22.054Z,93.70
2023-05-14T08:47:52.997Z,93.60
2023-05-14T08:50:23.782Z,92.80
2023-05-14T08:52:55.073Z,93.20
2023-05-14T08:55:26.091Z,93.70
2023-05-14T08:57:54.894Z,96.20
2023-05-14T09:00:28.482Z,94.10
2023-05-14T09:02:57.835Z,91.90
2023-05-14T09:05:27.185Z,95.00
2023-05-14T09:07:55.723Z,93.40
2023-05-14T09:10:25.504Z,93.00
2023-05-14T09:12:54.705Z,90.20
2023-05-14T09:15:29.905Z,86.20
2023-05-14T09:17:59.658Z,87.50
2023-05-14T09:20:29.090Z,87.40
2023-05-14T09:22:57.981Z,74.10
2023-05-14T09:25:28.896Z,68.50
2023-05-14T09:27:59.214Z,67.80
2023-05-14T09:30:29.256Z,83.20
2023-05-14T09:32:59.335Z,67.70
2023-05-14T09:35:27.951Z,72.40
2023-05-14T09:37:57.567Z,68.70
2023-05-14T09:40:26.862Z,75.60
2023-05-14T09:42:56.339Z,68.90
2023-05-14T09:45:25.699Z,68.00
2023-05-14T09:47:57.387Z,68.30
2023-05-14T09:50:26.667Z,72.80
2023-05-14T09:52:57.054Z,66.00
2023-05-14T09:55:27.777Z,64.10
2023-05-14T09:57:57.750Z,60.30
2023-05-14T10:00:29.731Z,64.50
2023-05-14T10:03:00.545Z,61.90
2023-05-14T10:05:30.318Z,61.70
2023-05-14T10:08:02.268Z,61.40
2023-05-14T10:10:31.919Z,64.70
2023-05-14T10:13:07.448Z,61.10
2023-05-14T10:15:44.569Z,61.60
2023-05-14T10:18:24.299Z,59.50
2023-05-14T10:21:05.421Z,66.80
2023-05-14T10:23:34.125Z,65.50
2023-05-14T10:26:04.320Z,70.80
2023-05-14T10:28:33.989Z,62.00
2023-05-14T10:31:03.188Z,69.60
2023-05-14T10:33:51.128Z,61.10
2023-05-14T10:36:23.508Z,75.40
2023-05-14T10:38:58.799Z,63.90
2023-05-14T10:41:28.247Z,62.00
2023-05-14T10:44:00.893Z,65.40
2023-05-14T10:46:30.278Z,61.70
2023-05-14T10:49:01.028Z,66.10
2023-05-14T10:51:30.211Z,58.60
2023-05-14T10:54:01.942Z,69.60
2023-05-14T10:56:30.830Z,63.70
2023-05-14T10:59:01.721Z,59.00
2023-05-14T11:01:30.642Z,55.00
2023-05-14T11:04:00.582Z,59.10
2023-05-14T11:06:29.871Z,58.00
2023-05-14T11:09:02.638Z,53.80
2023-05-14T11:11:35.168Z,53.80
2023-05-14T11:14:04.275Z,55.60
2023-05-14T11:16:33.878Z,53.00
2023-05-14T11:19:07.427Z,58.20
2023-05-14T11:21:37.700Z,49.90
2023-05-14T11:24:09.116Z,51.30
2023-05-14T11:26:37.667Z,56.50
2023-05-14T11:29:07.176Z,54.50
2023-05-14T11:31:36.707Z,57.40
2023-05-14T11:34:10.235Z,53.40
2023-05-14T11:36:39.269Z,59.20
2023-05-14T11:39:08.434Z,50.40
2023-05-14T11:41:37.107Z,48.50
2023-05-14T11:44:09.510Z,56.40
2023-05-14T11:46:38.785Z,54.40
2023-05-14T11:49:09.166Z,53.50
2023-05-14T11:51:38.490Z,52.90
2023-05-14T11:54:07.566Z,52.40
2023-05-14T11:56:36.695Z,53.40
2023-05-14T11:59:06.004Z,51.60
2023-05-14T12:01:38.255Z,51.40
2023-05-14T12:04:09.573Z,49.10
2023-05-14T12:06:43.414Z,52.10
2023-05-14T12:09:17.824Z,50.20
2023-05-14T12:11:47.250Z,48.80
2023-05-14T12:14:21.582Z,50.30
2023-05-14T12:16:51.744Z,54.60
2023-05-14T12:19:23.443Z,51.60
2023-05-14T12:21:53.688Z,49.50
2023-05-14T12:24:22.340Z,49.70
2023-05-14T12:26:52.798Z,50.30
2023-05-14T12:29:22.127Z,51.20
2023-05-14T12:31:51.630Z,50.00
2023-05-14T12:34:20.144Z,54.20
2023-05-14T12:36:53.212Z,51.30
2023-05-14T12:39:24.023Z,50.00
2023-05-14T12:41:53.256Z,52.60
2023-05-14T12:44:22.610Z,50.80
2023-05-14T12:46:55.372Z,50.90
2023-05-14T12:49:26.211Z,54.70
2023-05-14T12:52:07.848Z,50.70
2023-05-14T12:54:45.564Z,52.50
2023-05-14T12:57:14.673Z,57.30
2023-05-14T12:59:44.615Z,55.20
2023-05-14T13:02:13.617Z,57.50
2023-05-14T13:04:43.808Z,57.50
2023-05-14T13:07:13.035Z,56.20
2023-05-14T13:09:41.580Z,55.00
2023-05-14T13:12:12.234Z,53.50
2023-05-14T13:14:41.088Z,53.90
2023-05-14T13:17:10.080Z,52.90
2023-05-14T13:19:39.170Z,52.60
2023-05-14T13:22:07.931Z,54.20
2023-05-14T13:24:37.174Z,52.00
2023-05-14T13:27:06.905Z,57.20
2023-05-14T13:29:36.768Z,53.50
2023-05-14T13:32:08.913Z,50.00
2023-05-14T13:34:37.347Z,58.60
2023-05-14T13:37:06.379Z,54.30
2023-05-14T13:39:34.702Z,51.80
2023-05-14T13:42:05.769Z,47.40
2023-05-14T13:44:36.485Z,49.70
2023-05-14T13:47:07.305Z,48.60
2023-05-14T13:49:35.835Z,54.30
2023-05-14T13:52:04.479Z,51.20
2023-05-14T13:54:33.534Z,51.40
2023-05-14T13:57:02.206Z,50.40
2023-05-14T13:59:31.165Z,53.70
2023-05-14T14:02:01.105Z,51.00
2023-05-14T14:04:31.687Z,54.60
2023-05-14T14:07:00.968Z,53.20
2023-05-14T14:09:29.411Z,52.80
2023-05-14T14:11:58.301Z,53.80
2023-05-14T14:14:26.711Z,53.10
2023-05-14T14:16:55.746Z,55.80
2023-05-14T14:19:26.486Z,54.10
2023-05-14T14:21:56.579Z,52.80
2023-05-14T14:24:26.136Z,52.20
2023-05-14T14:26:54.956Z,54.00
2023-05-14T14:29:23.985Z,52.70
2023-05-14T14:31:54.715Z,51.20
2023-05-14T14:34:23.485Z,52.30
2023-05-14T14:36:52.857Z,52.50
2023-05-14T14:39:25.776Z,56.40
2023-05-14T14:41:58.682Z,53.20
2023-05-14T14:44:27.822Z,50.90
2023-05-14T14:46:57.369Z,57.30
2023-05-14T14:49:26.708Z,53.80
2023-05-14T14:51:56.625Z,50.80
2023-05-14T14:54:27.067Z,53.20
2023-05-14T14:56:55.776Z,55.10
2023-05-14T14:59:24.710Z,52.50
2023-05-14T15:01:53.776Z,53.10
2023-05-14T15:04:22.263Z,52.90
2023-05-14T15:06:51.011Z,52.00
2023-05-14T15:09:19.856Z,55.00
2023-05-14T15:11:53.265Z,57.90
2023-05-14T15:14:22.287Z,57.70
2023-05-14T15:16:51.262Z,57.20
2023-05-14T15:19:20.252Z,57.50
2023-05-14T15:21:51.313Z,57.80
2023-05-14T15:24:20.288Z,59.40
2023-05-14T15:26:52.078Z,58.10
2023-05-14T15:29:22.491Z,59.70
2023-05-14T15:31:52.943Z,58.90
2023-05-14T15:34:22.777Z,59.80
2023-05-14T15:36:51.531Z,58.00
2023-05-14T15:39:20.258Z,58.10
2023-05-14T15:41:50.627Z,57.30
2023-05-14T15:44:19.211Z,59.40
2023-05-14T15:46:47.951Z,60.20
2023-05-14T15:49:16.882Z,56.30
2023-05-14T15:51:45.646Z,59.40
2023-05-14T15:54:14.771Z,58.60
2023-05-14T15:56:43.490Z,58.10
2023-05-14T15:59:14.984Z,59.20
2023-05-14T16:01:43.522Z,56.30
2023-05-14T16:04:12.199Z,58.60
2023-05-14T16:06:42.014Z,58.50
2023-05-14T16:09:10.659Z,56.30
2023-05-14T16:11:40.623Z,57.10
2023-05-14T16:14:08.967Z,59.40
2023-05-14T16:16:41.816Z,58.00
2023-05-14T16:19:11.105Z,55.50
2023-05-14T16:21:40.186Z,60.70
2023-05-14T16:24:12.955Z,63.80
2023-05-14T16:26:41.836Z,61.80
2023-05-14T16:29:10.770Z,63.50
2023-05-14T16:31:40.861Z,64.80
2023-05-14T16:34:09.809Z,66.10
2023-05-14T16:36:41.364Z,66.10
2023-05-14T16:39:13.641Z,66.90
2023-05-14T16:41:43.572Z,66.80
2023-05-14T16:44:12.217Z,65.80
2023-05-14T16:46:42.455Z,67.00
2023-05-14T16:49:11.224Z,65.00
2023-05-14T16:51:43.156Z,66.20
2023-05-14T16:54:11.920Z,65.50
2023-05-14T16:56:40.475Z,68.50
2023-05-14T16:59:08.923Z,69.40
2023-05-14T17:01:43.633Z,68.60
2023-05-14T17:04:12.324Z,69.20
2023-05-14T17:06:41.375Z,67.90
2023-05-14T17:09:09.963Z,68.00
2023-05-14T17:11:38.794Z,67.50
2023-05-14T17:14:08.040Z,64.40
2023-05-14T17:16:39.268Z,66.30
2023-05-14T17:19:09.255Z,69.30
2023-05-14T17:21:39.225Z,67.70
2023-05-14T17:24:08.724Z,64.40
2023-05-14T17:26:39.327Z,66.20
2023-05-14T17:29:10.943Z,67.20
2023-05-14T17:31:39.882Z,65.20
2023-05-14T17:34:09.918Z,64.80
2023-05-14T17:36:38.560Z,69.70
2023-05-14T17:39:07.207Z,66.30
2023-05-14T17:41:37.191Z,67.70
2023-05-14T17:44:08.421Z,71.10
2023-05-14T17:46:38.125Z,70.00
2023-05-14T17:49:07.467Z,71.40
2023-05-14T17:51:37.640Z,67.50
2023-05-14T17:54:07.138Z,69.60
2023-05-14T17:56:38.260Z,67.90
2023-05-14T17:59:07.161Z,69.60
2023-05-14T18:01:35.935Z,70.80
2023-05-14T18:04:04.388Z,69.00
2023-05-14T18:06:33.204Z,73.30
2023-05-14T18:09:04.728Z,68.40
2023-05-14T18:11:34.205Z,68.30
2023-05-14T18:14:03.087Z,70.60
2023-05-14T18:16:32.070Z,68.70
2023-05-14T18:19:01.654Z,70.30
2023-05-14T18:21:30.381Z,72.80
2023-05-14T18:23:59.482Z,74.50
2023-05-14T18:26:32.180Z,71.30
2023-05-14T18:29:02.752Z,73.50
2023-05-14T18:31:31.835Z,68.10
2023-05-14T18:34:00.552Z,71.40
2023-05-14T18:36:29.259Z,70.10
2023-05-14T18:38:58.029Z,67.60
2023-05-14T18:41:28.818Z,72.60
2023-05-14T18:43:58.195Z,72.70
2023-05-14T18:46:27.993Z,73.20
2023-05-14T18:48:57.823Z,69.20
2023-05-14T18:51:26.603Z,69.00
2023-05-14T18:58:55.915Z,71.70
2023-05-14T19:01:25.749Z,74.60
2023-05-14T19:04:01.316Z,78.80
2023-05-14T19:06:32.545Z,72.00
2023-05-14T19:09:01.653Z,73.40
2023-05-14T19:11:33.837Z,73.40
2023-05-14T19:14:06.323Z,77.70
2023-05-14T19:16:35.252Z,75.90
2023-05-14T19:19:05.508Z,78.30
2023-05-14T19:21:36.523Z,77.50
2023-05-14T19:24:05.910Z,77.50
2023-05-14T19:26:34.593Z,76.80
2023-05-14T19:29:04.456Z,84.70
2023-05-14T19:31:33.332Z,81.30
2023-05-14T19:34:04.591Z,76.40
2023-05-14T19:36:35.690Z,82.10
2023-05-14T19:39:04.797Z,80.80
2023-05-14T19:41:36.261Z,78.90
2023-05-14T19:44:06.938Z,78.10
2023-05-14T19:46:36.131Z,79.40
2023-05-14T19:49:08.739Z,80.00
2023-05-14T19:51:49.228Z,79.10
2023-05-14T19:54:21.898Z,77.70
2023-05-14T19:56:56.084Z,77.90
2023-05-14T19:59:29.870Z,77.60
2023-05-14T20:01:58.487Z,76.90
2023-05-14T20:04:27.328Z,76.80
2023-05-14T20:09:59.259Z,78.90
2023-05-14T20:12:28.056Z,80.40
2023-05-14T20:15:00.510Z,78.90
2023-05-14T20:17:31.101Z,74.80
2023-05-14T20:20:00.225Z,80.40
2023-05-14T20:22:29.299Z,80.00
2023-05-14T20:24:57.715Z,79.70
2023-05-14T20:27:27.754Z,79.50
2023-05-14T20:29:57.662Z,79.20
2023-05-14T20:32:26.804Z,78.90
2023-05-14T20:34:55.471Z,78.80
2023-05-14T20:37:25.582Z,78.90
2023-05-14T20:39:54.442Z,79.00
2023-05-14T20:42:23.606Z,79.40
2023-05-14T20:44:53.673Z,79.60
2023-05-14T20:47:29.363Z,80.00
2023-05-14T20:49:58.635Z,80.20
2023-05-14T20:52:27.550Z,80.50
2023-05-14T20:54:58.791Z,80.80
2023-05-14T20:57:30.636Z,81.00
2023-05-14T21:00:00.427Z,81.50
2023-05-14T21:02:30.750Z,82.00
2023-05-14T21:04:59.345Z,82.10
2023-05-14T21:07:28.877Z,88.70
2023-05-14T21:09:57.745Z,89.60
2023-05-14T21:12:26.272Z,88.10
2023-05-14T21:14:55.606Z,87.50
2023-05-14T21:17:34.673Z,86.90
2023-05-14T21:20:07.481Z,88.50
2023-05-14T21:22:37.427Z,89.80
2023-05-14T21:25:07.225Z,88.90
2023-05-14T21:27:37.525Z,94.50
2023-05-14T21:30:08.889Z,94.90
2023-05-14T21:32:39.014Z,93.40
2023-05-14T21:35:11.801Z,95.50
2023-05-14T21:37:40.976Z,94.00
2023-05-14T21:40:12.418Z,93.60
2023-05-14T21:42:41.422Z,93.90
2023-05-14T21:45:11.595Z,93.40
2023-05-14T21:47:41.881Z,99.90
2023-05-14T21:50:13.963Z,99.90
2023-05-14T21:52:42.707Z,99.90
2023-05-14T21:55:11.863Z,99.90
2023-05-14T21:57:40.689Z,99.90
2023-05-14T22:00:13.312Z,99.90
2023-05-14T22:02:41.948Z,99.90
2023-05-14T22:05:12.493Z,99.90
2023-05-14T22:07:42.007Z,99.90
2023-05-14T22:10:12.438Z,99.90
2023-05-14T22:12:45.126Z,99.90
2023-05-14T22:15:15.133Z,99.90
2023-05-14T22:17:43.815Z,99.90
2023-05-14T22:20:14.746Z,99.90
2023-05-14T22:22:45.651Z,99.90
2023-05-14T22:25:14.591Z,99.90
2023-05-14T22:27:44.332Z,99.90
2023-05-14T22:30:15.813Z,99.90
2023-05-14T22:32:45.895Z,99.90
2023-05-14T22:35:16.305Z,99.90
2023-05-14T22:37:45.093Z,99.90
2023-05-14T22:40:16.484Z,99.90
2023-05-14T22:42:45.584Z,99.90
2023-05-14T22:45:15.189Z,99.90
2023-05-14T22:47:43.968Z,99.90
2023-05-14T22:50:12.753Z,99.90
2023-05-14T22:52:43.110Z,99.90
2023-05-14T22:55:11.918Z,99.90
2023-05-14T22:57:41.016Z,99.90
2023-05-14T23:00:11.382Z,99.90
2023-05-14T23:02:40.498Z,99.90
2023-05-14T23:05:10.697Z,99.90
2023-05-14T23:07:39.734Z,99.90
2023-05-14T23:10:12.818Z,99.90
2023-05-14T23:12:41.871Z,99.90
2023-05-14T23:15:11.882Z,99.90
2023-05-14T23:17:41.515Z,99.90
2023-05-14T23:20:12.827Z,99.90
2023-05-14T23:22:42.639Z,99.90
2023-05-14T23:25:13.274Z,99.90
2023-05-14T23:27:44.718Z,99.90
2023-05-14T23:30:14.629Z,99.90
2023-05-14T23:32:43.374Z,99.90
2023-05-14T23:35:12.257Z,99.90
2023-05-14T23:37:47.538Z,99.90
2023-05-14T23:40:18.604Z,99.90
2023-05-14T23:42:48.008Z,99.90
2023-05-14T23:45:17.017Z,99.90
2023-05-14T23:47:46.389Z,99.90
2023-05-14T23:50:15.125Z,99.90
2023-05-14T23:52:43.881Z,99.90
2023-05-14T23:55:13.435Z,99.90
2023-05-14T23:57:47.142Z,99.90
